Terminal Aerodrome Forecast
Issued by NWS

Home | Current Version | Previous Version | Text Only | Print | Product List | Glossary On
Versions: 1 2 3 4 5 6 7 8 9 10 11 12 13 14 15 16 17 18 19 20 21 22 23
000
FTUS43 KLSX 181100
TAFSUS
TAF
KSUS 181129Z 1812/1912 00000KT 4SM BR FEW150 BKN250
      TEMPO 1812/1814 2SM BR
     FM181500 12006KT P6SM SCT050 SCT150 BKN250
     FM190600 VRB03KT P6SM VCSH BKN050 OVC120
     FM190900 VRB03KT 5SM -SHRA VCTS BKN040CB OVC100=

USA.gov is the U.S. government's official web portal to all federal, state and local government web resources and services.